createdAt,value
2023-09-17T00:01:28.880Z,23.27
2023-09-17T00:03:55.921Z,23.10
2023-09-17T00:06:22.665Z,23.21
2023-09-17T00:08:49.098Z,23.01
2023-09-17T00:11:15.843Z,22.98
2023-09-17T00:13:43.725Z,23.05
2023-09-17T00:16:10.476Z,23.18
2023-09-17T00:18:37.030Z,23.23
2023-09-17T00:21:03.464Z,23.28
2023-09-17T00:23:29.941Z,23.03
2023-09-17T00:25:56.363Z,23.36
2023-09-17T00:28:22.792Z,23.37
2023-09-17T00:30:50.726Z,23.65
2023-09-17T00:33:17.226Z,23.71
2023-09-17T00:35:44.333Z,23.58
2023-09-17T00:38:10.795Z,23.20
2023-09-17T00:40:37.319Z,23.51
2023-09-17T00:43:04.273Z,23.66
2023-09-17T00:45:31.559Z,23.64
2023-09-17T00:48:00.536Z,23.71
2023-09-17T00:50:27.124Z,23.70
2023-09-17T00:52:53.820Z,23.69
2023-09-17T00:55:20.664Z,23.60
2023-09-17T00:57:47.274Z,23.56
2023-09-17T01:00:14.258Z,23.43
2023-09-17T01:02:42.550Z,23.28
2023-09-17T01:05:10.431Z,23.22
2023-09-17T01:07:37.165Z,23.03
2023-09-17T01:10:04.502Z,22.80
2023-09-17T01:12:31.783Z,22.36
2023-09-17T01:14:58.315Z,22.32
2023-09-17T01:17:24.949Z,22.36
2023-09-17T01:19:51.430Z,22.36
2023-09-17T01:22:26.160Z,22.37
2023-09-17T01:25:02.844Z,22.19
2023-09-17T01:27:31.856Z,22.01
2023-09-17T01:29:58.265Z,22.23
2023-09-17T01:32:24.785Z,22.28
2023-09-17T01:34:51.342Z,21.65
2023-09-17T01:37:21.696Z,21.59
2023-09-17T01:39:53.732Z,21.62
2023-09-17T01:42:22.184Z,21.36
2023-09-17T01:44:50.978Z,21.43
2023-09-17T01:47:18.279Z,21.60
2023-09-17T01:49:45.914Z,21.65
2023-09-17T01:52:13.073Z,21.62
2023-09-17T01:54:39.581Z,21.60
2023-09-17T01:57:06.148Z,21.65
2023-09-17T01:59:32.682Z,21.54
2023-09-17T02:02:00.544Z,21.52
2023-09-17T02:04:27.049Z,21.55
2023-09-17T02:06:53.479Z,21.36
2023-09-17T02:09:19.995Z,21.31
2023-09-17T02:11:46.410Z,21.07
2023-09-17T02:14:12.851Z,21.43
2023-09-17T02:16:41.466Z,21.12
2023-09-17T02:19:09.291Z,21.28
2023-09-17T02:21:35.687Z,21.13
2023-09-17T02:24:02.151Z,20.97
2023-09-17T02:26:28.572Z,21.22
2023-09-17T02:28:54.999Z,21.04
2023-09-17T02:31:21.665Z,21.40
2023-09-17T02:33:48.552Z,21.56
2023-09-17T02:36:16.446Z,21.53
2023-09-17T02:38:42.873Z,21.79
2023-09-17T02:41:09.295Z,21.90
2023-09-17T02:43:35.944Z,22.00
2023-09-17T02:46:02.466Z,22.10
2023-09-17T02:48:28.862Z,22.05
2023-09-17T02:50:55.357Z,21.84
2023-09-17T02:53:23.172Z,21.77
2023-09-17T02:55:49.743Z,21.79
2023-09-17T02:58:16.501Z,21.97
2023-09-17T03:00:42.972Z,22.09
2023-09-17T03:03:09.593Z,22.12
2023-09-17T03:05:36.158Z,21.83
2023-09-17T03:08:03.055Z,21.67
2023-09-17T03:10:30.929Z,21.47
2023-09-17T03:12:57.402Z,21.38
2023-09-17T03:15:23.898Z,21.24
2023-09-17T03:17:50.416Z,21.13
2023-09-17T03:20:16.898Z,21.00
2023-09-17T03:22:43.841Z,21.08
2023-09-17T03:25:11.461Z,21.15
2023-09-17T03:27:39.434Z,20.90
2023-09-17T03:30:07.344Z,21.05
2023-09-17T03:32:34.022Z,21.00
2023-09-17T03:35:01.207Z,21.08
2023-09-17T03:37:27.678Z,21.17
2023-09-17T03:40:05.615Z,21.36
2023-09-17T03:42:32.041Z,21.29
2023-09-17T03:44:59.900Z,21.18
2023-09-17T03:47:26.348Z,21.15
2023-09-17T03:49:52.852Z,21.53
2023-09-17T03:52:19.440Z,21.70
2023-09-17T03:54:46.003Z,21.78
2023-09-17T03:57:12.526Z,21.70
2023-09-17T03:59:39.012Z,21.76
2023-09-17T04:02:06.814Z,21.70
2023-09-17T04:04:33.406Z,21.64
2023-09-17T04:06:59.863Z,21.63
2023-09-17T04:09:26.343Z,21.67
2023-09-17T04:11:52.769Z,21.50
2023-09-17T04:14:19.269Z,21.44
2023-09-17T04:16:45.694Z,21.48
2023-09-17T04:19:13.622Z,21.29
2023-09-17T04:21:40.021Z,21.48
2023-09-17T04:24:07.196Z,21.64
2023-09-17T04:26:33.682Z,21.56
2023-09-17T04:29:00.103Z,21.59
2023-09-17T04:31:26.837Z,21.47
2023-09-17T04:33:53.524Z,21.55
2023-09-17T04:36:21.326Z,21.69
2023-09-17T04:38:47.823Z,21.63
2023-09-17T04:41:15.115Z,21.86
2023-09-17T04:43:41.584Z,21.85
2023-09-17T04:46:08.067Z,21.77
2023-09-17T04:48:34.467Z,21.81
2023-09-17T04:51:00.962Z,21.91
2023-09-17T04:53:28.771Z,21.88
2023-09-17T04:55:55.267Z,21.97
2023-09-17T04:58:21.750Z,21.97
2023-09-17T05:00:48.287Z,22.05
2023-09-17T05:03:14.801Z,22.11
2023-09-17T05:05:41.754Z,21.92
2023-09-17T05:08:08.242Z,21.88
2023-09-17T05:10:36.074Z,21.89
2023-09-17T05:13:02.712Z,21.80
2023-09-17T05:15:29.144Z,21.96
2023-09-17T05:17:55.624Z,21.97
2023-09-17T05:20:22.148Z,21.88
2023-09-17T05:22:48.572Z,21.92
2023-09-17T05:25:15.087Z,21.94
2023-09-17T05:27:43.014Z,22.05
2023-09-17T05:30:10.013Z,21.96
2023-09-17T05:32:36.749Z,22.11
2023-09-17T05:35:03.680Z,22.18
2023-09-17T05:37:30.149Z,22.24
2023-09-17T05:39:56.656Z,22.17
2023-09-17T05:42:23.223Z,22.24
2023-09-17T05:44:50.985Z,22.33
2023-09-17T05:47:17.433Z,22.21
2023-09-17T05:49:44.005Z,22.33
2023-09-17T05:52:10.531Z,22.46
2023-09-17T05:54:37.026Z,22.49
2023-09-17T05:57:04.692Z,22.60
2023-09-17T05:59:32.717Z,22.56
2023-09-17T06:02:00.771Z,22.63
2023-09-17T06:04:27.338Z,22.66
2023-09-17T06:06:53.752Z,22.72
2023-09-17T06:09:20.160Z,22.73
2023-09-17T06:11:47.546Z,22.87
2023-09-17T06:14:15.238Z,22.89
2023-09-17T06:16:55.972Z,22.91
2023-09-17T06:19:25.477Z,23.05
2023-09-17T06:21:53.331Z,22.95
2023-09-17T06:24:19.861Z,22.97
2023-09-17T06:26:46.311Z,23.12
2023-09-17T06:29:12.813Z,23.06
2023-09-17T06:31:40.148Z,23.25
2023-09-17T06:34:07.763Z,23.41
2023-09-17T06:36:35.596Z,23.57
2023-09-17T06:39:02.048Z,23.64
2023-09-17T06:41:28.524Z,23.58
2023-09-17T06:43:55.187Z,23.68
2023-09-17T06:46:21.922Z,23.77
2023-09-17T06:48:49.600Z,24.28
2023-09-17T06:51:21.379Z,24.52
2023-09-17T06:53:49.722Z,24.72
2023-09-17T06:56:16.730Z,24.91
2023-09-17T06:58:45.051Z,24.80
2023-09-17T07:01:11.554Z,24.95
2023-09-17T07:03:38.153Z,25.02
2023-09-17T07:06:04.700Z,25.36
2023-09-17T07:08:31.279Z,25.25
2023-09-17T07:10:59.031Z,25.56
2023-09-17T07:13:25.582Z,25.57
2023-09-17T07:15:52.108Z,25.67
2023-09-17T07:18:18.522Z,25.76
2023-09-17T07:20:44.979Z,25.78
2023-09-17T07:23:11.420Z,25.56
2023-09-17T07:25:37.856Z,25.70
2023-09-17T07:28:06.648Z,26.04
2023-09-17T07:30:33.212Z,26.51
2023-09-17T07:32:59.664Z,26.79
2023-09-17T07:35:26.408Z,27.20
2023-09-17T07:37:52.857Z,27.33
2023-09-17T07:40:19.336Z,27.73
2023-09-17T07:42:45.825Z,27.91
2023-09-17T07:45:13.630Z,27.92
2023-09-17T07:47:40.213Z,28.02
2023-09-17T07:50:07.813Z,28.09
2023-09-17T07:52:34.321Z,28.48
2023-09-17T07:55:00.977Z,28.37
2023-09-17T07:57:28.118Z,28.46
2023-09-17T07:59:54.538Z,28.64
2023-09-17T08:02:22.409Z,28.64
2023-09-17T08:04:48.911Z,28.74
2023-09-17T08:07:15.636Z,28.59
2023-09-17T08:09:42.048Z,28.78
2023-09-17T08:12:08.935Z,28.96
2023-09-17T08:14:35.778Z,28.83
2023-09-17T08:17:02.365Z,28.77
2023-09-17T08:19:30.197Z,28.77
2023-09-17T08:21:56.603Z,29.03
2023-09-17T08:24:23.251Z,28.98
2023-09-17T08:26:49.799Z,29.27
2023-09-17T08:29:16.266Z,29.63
2023-09-17T08:31:42.830Z,29.83
2023-09-17T08:34:09.331Z,29.81
2023-09-17T08:36:37.863Z,30.27
2023-09-17T08:39:04.296Z,30.23
2023-09-17T08:41:30.844Z,29.93
2023-09-17T08:43:58.407Z,29.80
2023-09-17T08:46:27.876Z,30.27
2023-09-17T08:48:54.642Z,30.18
2023-09-17T08:51:24.391Z,29.80
2023-09-17T08:54:02.038Z,29.89
2023-09-17T08:56:31.638Z,29.69
2023-09-17T08:59:04.638Z,29.78
2023-09-17T09:01:33.022Z,30.03
2023-09-17T09:04:01.156Z,30.14
2023-09-17T09:06:29.850Z,29.52
2023-09-17T09:08:58.624Z,29.73
2023-09-17T09:11:25.644Z,29.77
2023-09-17T09:13:52.458Z,29.55
2023-09-17T09:16:19.677Z,29.40
2023-09-17T09:18:46.219Z,29.30
2023-09-17T09:21:12.690Z,29.50
2023-09-17T09:23:39.168Z,29.18
2023-09-17T09:26:07.171Z,29.41
2023-09-17T09:28:34.638Z,29.63
2023-09-17T09:31:01.132Z,29.80
2023-09-17T09:33:27.754Z,29.99
2023-09-17T09:35:54.750Z,29.45
2023-09-17T09:38:21.315Z,29.24
2023-09-17T09:40:48.836Z,29.45
2023-09-17T09:43:30.260Z,29.43
2023-09-17T09:46:01.608Z,29.35
2023-09-17T09:48:28.165Z,29.04
2023-09-17T09:50:55.026Z,29.09
2023-09-17T09:53:21.415Z,28.69
2023-09-17T09:55:49.118Z,29.15
2023-09-17T09:58:16.035Z,29.31
2023-09-17T10:00:44.110Z,29.04
2023-09-17T10:03:10.619Z,29.09
2023-09-17T10:05:38.028Z,28.58
2023-09-17T10:08:05.295Z,28.76
2023-09-17T10:10:32.610Z,28.92
2023-09-17T10:13:00.543Z,28.51
2023-09-17T10:15:27.728Z,28.63
2023-09-17T10:17:57.147Z,28.67
2023-09-17T10:20:27.177Z,28.87
2023-09-17T10:22:55.337Z,28.91
2023-09-17T10:25:24.276Z,29.20
2023-09-17T10:27:54.937Z,29.46
2023-09-17T10:30:22.812Z,29.45
2023-09-17T10:32:51.357Z,29.40
2023-09-17T10:35:19.381Z,29.64
2023-09-17T10:37:46.957Z,29.69
2023-09-17T10:40:14.155Z,29.87
2023-09-17T10:42:40.902Z,29.82
2023-09-17T10:45:09.452Z,29.60
2023-09-17T10:47:36.280Z,29.39
2023-09-17T10:50:03.406Z,29.38
2023-09-17T10:52:31.392Z,29.26
2023-09-17T10:54:58.184Z,29.43
2023-09-17T10:57:32.951Z,29.38
2023-09-17T11:00:01.440Z,29.22
2023-09-17T11:02:31.880Z,29.56
2023-09-17T11:05:00.268Z,29.58
2023-09-17T11:07:27.592Z,29.66
2023-09-17T11:09:55.440Z,29.56
2023-09-17T11:12:22.581Z,29.43
2023-09-17T11:14:49.128Z,29.61
2023-09-17T11:17:17.546Z,29.56
2023-09-17T11:19:43.996Z,29.28
2023-09-17T11:22:13.221Z,29.59
2023-09-17T11:24:39.788Z,29.75
2023-09-17T11:27:07.536Z,29.83
2023-09-17T11:29:38.436Z,29.60
2023-09-17T11:32:05.176Z,29.57
2023-09-17T11:34:33.350Z,29.95
2023-09-17T11:36:59.935Z,30.11
2023-09-17T11:39:26.486Z,29.72
2023-09-17T11:41:55.392Z,29.90
2023-09-17T11:44:23.744Z,30.26
2023-09-17T11:46:50.749Z,30.42
2023-09-17T11:49:17.677Z,30.44
2023-09-17T11:51:45.498Z,30.79
2023-09-17T11:54:12.640Z,30.66
2023-09-17T11:56:46.236Z,30.74
2023-09-17T11:59:12.754Z,30.59
2023-09-17T12:01:43.243Z,30.64
2023-09-17T12:04:11.335Z,30.51
2023-09-17T12:06:39.768Z,30.50
2023-09-17T12:09:29.777Z,30.17
2023-09-17T12:11:56.732Z,29.96
2023-09-17T12:14:24.063Z,30.07
2023-09-17T12:16:54.744Z,30.13
2023-09-17T12:19:21.745Z,30.20
2023-09-17T12:21:49.837Z,30.06
2023-09-17T12:24:20.533Z,29.98
2023-09-17T12:27:06.990Z,30.17
2023-09-17T12:29:33.890Z,30.32
2023-09-17T12:32:02.186Z,30.40
2023-09-17T12:34:28.741Z,30.06
2023-09-17T12:36:55.152Z,30.14
2023-09-17T12:39:21.752Z,29.92
2023-09-17T12:41:48.270Z,29.44
2023-09-17T12:44:14.846Z,29.52
2023-09-17T12:46:41.929Z,29.77
2023-09-17T12:49:10.096Z,30.17
2023-09-17T12:51:37.891Z,30.31
2023-09-17T12:54:04.909Z,30.32
2023-09-17T12:56:33.254Z,30.29
2023-09-17T12:58:59.984Z,30.18
2023-09-17T13:01:26.454Z,29.69
2023-09-17T13:03:54.583Z,30.05
2023-09-17T13:06:24.464Z,30.04
2023-09-17T13:08:51.585Z,30.39
2023-09-17T13:11:18.905Z,30.47
2023-09-17T13:13:45.927Z,30.47
2023-09-17T13:16:13.023Z,30.48
2023-09-17T13:18:40.067Z,30.49
2023-09-17T13:21:09.868Z,30.59
2023-09-17T13:23:39.463Z,30.30
2023-09-17T13:26:07.309Z,30.38
2023-09-17T13:28:34.179Z,30.48
2023-09-17T13:31:01.593Z,30.27
2023-09-17T13:33:28.299Z,30.45
2023-09-17T13:35:55.093Z,30.45
2023-09-17T13:38:21.895Z,30.31
2023-09-17T13:40:51.299Z,30.23
2023-09-17T13:43:18.460Z,30.37
2023-09-17T13:45:55.637Z,30.47
2023-09-17T13:48:22.744Z,30.52
2023-09-17T13:50:49.568Z,30.67
2023-09-17T13:53:16.646Z,30.85
2023-09-17T13:55:43.367Z,30.90
2023-09-17T13:58:12.408Z,30.89
2023-09-17T14:00:38.917Z,31.14
2023-09-17T14:03:10.250Z,31.18
2023-09-17T14:05:36.710Z,31.24
2023-09-17T14:08:03.316Z,31.43
2023-09-17T14:10:30.046Z,31.54
2023-09-17T14:12:56.773Z,31.60
2023-09-17T14:15:24.623Z,31.66
2023-09-17T14:17:51.102Z,31.82
2023-09-17T14:20:17.627Z,32.14
2023-09-17T14:22:44.116Z,32.31
2023-09-17T14:25:10.568Z,32.30
2023-09-17T14:27:37.093Z,32.54
2023-09-17T14:30:04.202Z,32.68
2023-09-17T14:32:32.292Z,32.54
2023-09-17T14:34:58.952Z,32.46
2023-09-17T14:37:27.056Z,32.53
2023-09-17T14:39:53.449Z,32.57
2023-09-17T14:42:20.565Z,32.41
2023-09-17T14:44:46.976Z,32.58
2023-09-17T14:47:13.530Z,32.61
2023-09-17T14:49:41.340Z,32.55
2023-09-17T14:52:07.804Z,32.38
2023-09-17T14:54:34.597Z,32.24
2023-09-17T14:57:01.019Z,32.11
2023-09-17T14:59:27.512Z,32.15
2023-09-17T15:02:00.411Z,32.04
2023-09-17T15:04:27.612Z,31.97
2023-09-17T15:06:55.562Z,31.85
2023-09-17T15:09:26.964Z,31.79
2023-09-17T15:11:53.837Z,31.70
2023-09-17T15:14:20.313Z,31.63
2023-09-17T15:16:46.812Z,31.61
2023-09-17T15:19:13.280Z,31.61
2023-09-17T15:21:39.697Z,31.58
2023-09-17T15:24:08.008Z,31.57
2023-09-17T15:26:34.410Z,31.45
2023-09-17T15:29:00.853Z,31.35
2023-09-17T15:31:27.357Z,31.46
2023-09-17T15:33:53.897Z,31.46
2023-09-17T15:36:20.724Z,31.42
2023-09-17T15:38:47.230Z,31.40
2023-09-17T15:41:15.178Z,31.29
2023-09-17T15:43:42.284Z,31.21
2023-09-17T15:46:09.077Z,31.23
2023-09-17T15:48:35.598Z,31.19
2023-09-17T15:51:02.724Z,31.13
2023-09-17T15:53:29.172Z,31.07
2023-09-17T15:55:56.299Z,30.86
2023-09-17T15:58:24.120Z,30.75
2023-09-17T16:00:50.627Z,30.75
2023-09-17T16:03:17.221Z,30.72
2023-09-17T16:05:44.054Z,30.64
2023-09-17T16:08:11.196Z,30.53
2023-09-17T16:10:39.539Z,30.32
2023-09-17T16:13:06.799Z,30.15
2023-09-17T16:15:34.649Z,30.14
2023-09-17T16:18:01.109Z,30.06
2023-09-17T16:20:27.648Z,30.05
2023-09-17T16:22:54.106Z,29.94
2023-09-17T16:25:20.711Z,29.91
2023-09-17T16:27:47.188Z,29.88
2023-09-17T16:30:14.354Z,29.76
2023-09-17T16:32:42.491Z,29.71
2023-09-17T16:35:10.038Z,29.61
2023-09-17T16:37:36.681Z,29.54
2023-09-17T16:40:03.517Z,29.42
2023-09-17T16:42:30.480Z,29.36
2023-09-17T16:45:01.775Z,29.29
2023-09-17T16:47:29.712Z,29.15
2023-09-17T16:49:57.665Z,29.00
2023-09-17T16:52:25.622Z,29.00
2023-09-17T16:54:52.063Z,28.81
2023-09-17T16:57:18.895Z,28.64
2023-09-17T16:59:45.909Z,28.63
2023-09-17T17:02:14.258Z,28.52
2023-09-17T17:04:40.877Z,28.38
2023-09-17T17:07:08.768Z,28.25
2023-09-17T17:09:37.756Z,28.09
2023-09-17T17:12:09.040Z,28.07
2023-09-17T17:14:35.653Z,27.92
2023-09-17T17:17:02.245Z,27.82
2023-09-17T17:19:28.824Z,27.79
2023-09-17T17:21:55.420Z,27.53
2023-09-17T17:24:23.194Z,27.49
2023-09-17T17:26:49.768Z,27.33
2023-09-17T17:29:19.053Z,27.26
2023-09-17T17:31:45.696Z,27.05
2023-09-17T17:34:12.339Z,26.96
2023-09-17T17:36:38.866Z,26.87
2023-09-17T17:39:05.366Z,26.70
2023-09-17T17:41:33.258Z,26.71
2023-09-17T17:44:00.082Z,26.61
2023-09-17T17:46:26.901Z,26.58
2023-09-17T17:48:53.382Z,26.45
2023-09-17T17:51:19.891Z,26.38
2023-09-17T17:53:46.555Z,26.36
2023-09-17T17:56:14.174Z,26.32
2023-09-17T17:58:42.072Z,26.22
2023-09-17T18:01:08.718Z,26.08
2023-09-17T18:03:35.322Z,26.06
2023-09-17T18:06:01.862Z,25.95
2023-09-17T18:08:28.594Z,25.88
2023-09-17T18:10:55.165Z,25.74
2023-09-17T18:13:21.792Z,25.49
2023-09-17T18:15:49.977Z,25.62
2023-09-17T18:18:16.628Z,25.66
2023-09-17T18:20:44.566Z,25.66
2023-09-17T18:23:11.120Z,25.62
2023-09-17T18:25:37.587Z,25.70
2023-09-17T18:28:04.492Z,25.60
2023-09-17T18:30:30.911Z,25.63
2023-09-17T18:32:58.743Z,25.61
2023-09-17T18:35:25.350Z,25.62
2023-09-17T18:37:51.926Z,25.57
2023-09-17T18:40:18.476Z,25.42
2023-09-17T18:42:44.922Z,25.58
2023-09-17T18:45:13.171Z,25.50
2023-09-17T18:47:40.151Z,25.49
2023-09-17T18:50:08.882Z,25.44
2023-09-17T18:52:35.375Z,25.41
2023-09-17T18:55:01.999Z,25.47
2023-09-17T18:57:33.743Z,25.43
2023-09-17T19:00:00.197Z,25.42
2023-09-17T19:02:26.944Z,25.32
2023-09-17T19:04:53.579Z,25.31
2023-09-17T19:07:21.509Z,25.23
2023-09-17T19:09:48.187Z,25.11
2023-09-17T19:12:14.693Z,25.14
2023-09-17T19:14:41.190Z,25.08
2023-09-17T19:17:07.782Z,25.07
2023-09-17T19:19:34.634Z,25.02
2023-09-17T19:22:02.587Z,24.95
2023-09-17T19:24:30.449Z,24.89
2023-09-17T19:26:57.047Z,24.86
2023-09-17T19:29:23.536Z,24.94
2023-09-17T19:31:50.111Z,24.94
2023-09-17T19:34:16.763Z,24.86
2023-09-17T19:36:43.416Z,24.77
2023-09-17T19:39:09.923Z,24.70
2023-09-17T19:41:37.724Z,24.63
2023-09-17T19:44:04.273Z,24.64
2023-09-17T19:46:30.762Z,24.65
2023-09-17T19:48:57.411Z,24.52
2023-09-17T19:51:24.037Z,24.46
2023-09-17T19:53:50.845Z,24.34
2023-09-17T19:56:19.335Z,24.40
2023-09-17T19:58:47.760Z,24.40
2023-09-17T20:01:14.254Z,24.31
2023-09-17T20:03:41.114Z,24.34
2023-09-17T20:06:07.701Z,24.36
2023-09-17T20:08:34.246Z,24.35
2023-09-17T20:11:00.776Z,24.45
2023-09-17T20:13:27.474Z,24.48
2023-09-17T20:15:55.311Z,24.51
2023-09-17T20:18:21.780Z,24.44
2023-09-17T20:20:48.280Z,24.43
2023-09-17T20:23:14.888Z,24.42
2023-09-17T20:25:41.674Z,24.52
2023-09-17T20:28:08.125Z,24.48
2023-09-17T20:30:34.597Z,24.51
2023-09-17T20:33:02.430Z,24.51
2023-09-17T20:35:29.027Z,24.53
2023-09-17T20:37:55.535Z,24.54
2023-09-17T20:40:22.004Z,24.57
2023-09-17T20:42:48.741Z,24.60
2023-09-17T20:45:15.158Z,24.50
2023-09-17T20:47:41.857Z,24.60
2023-09-17T20:50:10.349Z,24.56
2023-09-17T20:52:37.951Z,24.61
2023-09-17T20:55:05.484Z,24.71
2023-09-17T20:57:32.249Z,24.68
2023-09-17T20:59:58.934Z,24.61
2023-09-17T21:02:25.733Z,24.53
2023-09-17T21:04:52.455Z,24.71
2023-09-17T21:07:20.271Z,24.64
2023-09-17T21:09:46.723Z,24.68
2023-09-17T21:12:13.157Z,24.70
2023-09-17T21:14:39.874Z,24.71
2023-09-17T21:17:06.462Z,24.60
2023-09-17T21:19:33.239Z,24.62
2023-09-17T21:21:59.719Z,24.71
2023-09-17T21:24:27.501Z,24.63
2023-09-17T21:26:54.032Z,24.58
2023-09-17T21:29:20.630Z,24.59
2023-09-17T21:31:47.358Z,24.59
2023-09-17T21:34:13.822Z,24.61
2023-09-17T21:36:40.334Z,24.52
2023-09-17T21:39:06.895Z,24.33
2023-09-17T21:41:35.122Z,24.45
2023-09-17T21:44:01.976Z,24.53
2023-09-17T21:46:28.490Z,24.45
2023-09-17T21:48:59.407Z,24.40
2023-09-17T21:51:25.849Z,24.49
2023-09-17T21:53:52.636Z,24.52
2023-09-17T21:56:19.270Z,24.53
2023-09-17T21:58:47.131Z,24.50
2023-09-17T22:01:13.631Z,24.53
2023-09-17T22:03:40.252Z,24.54
2023-09-17T22:06:06.772Z,24.53
2023-09-17T22:08:33.317Z,24.55
2023-09-17T22:11:04.730Z,24.55
2023-09-17T22:13:31.371Z,24.50
2023-09-17T22:15:59.108Z,24.48
2023-09-17T22:18:25.632Z,24.48
2023-09-17T22:21:04.920Z,24.48
2023-09-17T22:23:31.444Z,24.42
2023-09-17T22:25:57.903Z,24.45
2023-09-17T22:28:24.544Z,24.43
2023-09-17T22:30:51.269Z,24.46
2023-09-17T22:33:19.183Z,24.44
2023-09-17T22:35:45.656Z,24.36
2023-09-17T22:38:12.149Z,24.40
2023-09-17T22:40:39.402Z,24.48
2023-09-17T22:43:08.617Z,24.42
2023-09-17T22:45:37.619Z,24.45
2023-09-17T22:48:04.989Z,24.52
2023-09-17T22:50:32.929Z,24.55
2023-09-17T22:52:59.428Z,24.58
2023-09-17T22:55:25.942Z,24.62
2023-09-17T22:57:52.381Z,24.57
2023-09-17T23:00:18.939Z,24.62
2023-09-17T23:02:45.512Z,24.59
2023-09-17T23:05:12.065Z,24.62
2023-09-17T23:07:39.846Z,24.60
2023-09-17T23:10:07.182Z,24.55
2023-09-17T23:12:33.612Z,24.63
2023-09-17T23:15:00.163Z,24.58
2023-09-17T23:17:26.663Z,24.61
2023-09-17T23:19:53.176Z,24.51
2023-09-17T23:22:19.731Z,24.59
2023-09-17T23:24:47.561Z,24.67
2023-09-17T23:27:14.048Z,24.66
2023-09-17T23:29:40.443Z,24.70
2023-09-17T23:32:07.037Z,24.74
2023-09-17T23:34:33.509Z,24.71
2023-09-17T23:37:00.004Z,24.72
2023-09-17T23:39:26.437Z,24.68
2023-09-17T23:41:54.276Z,24.61
2023-09-17T23:44:20.820Z,24.71
2023-09-17T23:46:47.292Z,24.63
2023-09-17T23:49:13.822Z,24.65
2023-09-17T23:51:40.223Z,24.61
2023-09-17T23:54:06.927Z,24.55
2023-09-17T23:56:33.413Z,24.63
2023-09-17T23:59:01.288Z,24.58
